createdAt,value
2023-03-13T00:01:34.125Z,99.5
2023-03-13T00:06:40.269Z,99.5
2023-03-13T00:11:46.472Z,99.5
2023-03-13T00:16:52.650Z,99.5
2023-03-13T00:21:57.947Z,99.5
2023-03-13T00:27:04.080Z,99.5
2023-03-13T00:32:10.273Z,99.5
2023-03-13T00:37:16.517Z,99.5
2023-03-13T00:42:22.650Z,99.5
2023-03-13T00:47:28.847Z,99.5
2023-03-13T00:52:35.064Z,99.5
2023-03-13T00:57:41.224Z,99.5
2023-03-13T01:02:47.415Z,99.5
2023-03-13T01:07:53.628Z,99.5
2023-03-13T01:12:59.814Z,99.5
2023-03-13T01:18:05.992Z,99.5
2023-03-13T01:23:12.233Z,99.5
2023-03-13T01:28:18.393Z,99.5
2023-03-13T01:33:23.642Z,99.5
2023-03-13T01:38:29.819Z,99.5
2023-03-13T01:43:36.007Z,99.5
2023-03-13T01:48:42.292Z,99.5
2023-03-13T01:53:48.410Z,99.5
2023-03-13T01:58:54.691Z,99.5
2023-03-13T02:04:00.762Z,99.5
2023-03-13T02:09:06.969Z,99.5
2023-03-13T02:14:13.172Z,99.5
2023-03-13T02:19:19.357Z,99.5
2023-03-13T02:24:25.529Z,99.5
2023-03-13T02:29:31.717Z,99.5
2023-03-13T02:34:37.959Z,99.5
2023-03-13T02:39:44.099Z,99.5
2023-03-13T02:44:49.332Z,99.5
2023-03-13T02:49:55.588Z,99.5
2023-03-13T02:55:01.760Z,99.5
2023-03-13T03:00:07.932Z,99.5
2023-03-13T03:05:14.122Z,99.5
2023-03-13T03:10:20.311Z,99
2023-03-13T03:15:26.487Z,99.5
2023-03-13T03:20:32.685Z,99.5
2023-03-13T03:25:38.886Z,99.5
2023-03-13T03:30:45.064Z,99.5
2023-03-13T03:35:51.297Z,99.5
2023-03-13T03:40:57.468Z,99.5
2023-03-13T03:46:03.637Z,99.5
2023-03-13T03:51:09.821Z,99.5
2023-03-13T03:56:16.037Z,99.5
2023-03-13T04:01:22.225Z,99.5
2023-03-13T04:06:28.423Z,99.5
2023-03-13T04:11:34.665Z,99.5
2023-03-13T04:16:39.851Z,99.5
2023-03-13T04:21:46.042Z,99.5
2023-03-13T04:26:52.225Z,99.5
2023-03-13T04:31:58.426Z,99.5
2023-03-13T04:37:04.617Z,99.5
2023-03-13T04:42:10.809Z,99.5
2023-03-13T04:47:17.011Z,99.5
2023-03-13T04:52:23.184Z,99.5
2023-03-13T04:57:29.375Z,99.5
2023-03-13T05:02:35.613Z,99.5
2023-03-13T05:07:41.762Z,99.5
2023-03-13T05:12:47.947Z,99.5
2023-03-13T05:17:54.143Z,99.5
2023-03-13T05:23:00.349Z,99.5
2023-03-13T05:28:06.509Z,99.5
2023-03-13T05:33:12.721Z,99.5
2023-03-13T05:38:18.920Z,99.5
2023-03-13T05:43:25.135Z,99.5
2023-03-13T05:48:30.336Z,99.5
2023-03-13T05:53:36.524Z,99.5
2023-03-13T05:58:42.723Z,99.5
2023-03-13T06:03:48.932Z,99.5
2023-03-13T06:08:55.108Z,99.5
2023-03-13T06:14:01.297Z,99.5
2023-03-13T06:19:07.535Z,99.5
2023-03-13T06:24:13.676Z,99.5
2023-03-13T06:29:19.884Z,99.5
2023-03-13T06:34:26.170Z,99.5
2023-03-13T06:39:32.343Z,99.5
2023-03-13T10:19:01.740Z,98.5
2023-03-13T10:24:07.587Z,99.5
2023-03-13T10:29:14.125Z,98
2023-03-13T10:34:20.708Z,97.5
2023-03-13T10:39:27.315Z,96
2023-03-13T10:44:33.830Z,91
2023-03-13T10:49:40.412Z,92
2023-03-13T10:54:46.977Z,89
2023-03-13T10:59:53.585Z,88.5
2023-03-13T11:05:00.119Z,90.5
2023-03-13T11:10:06.693Z,89
2023-03-13T11:15:13.252Z,90.5
2023-03-13T11:20:19.826Z,90.5
2023-03-13T11:25:26.413Z,91.5
2023-03-13T11:30:32.218Z,90
2023-03-13T11:35:38.790Z,88.5
2023-03-13T11:40:45.506Z,87.5
2023-03-13T11:45:52.131Z,87
2023-03-13T11:50:58.561Z,87
2023-03-13T11:56:05.221Z,89.5
2023-03-13T12:01:11.685Z,89
2023-03-13T12:06:18.236Z,89
2023-03-13T12:11:24.790Z,88.5
2023-03-13T12:16:31.322Z,87.5
2023-03-13T12:21:37.899Z,85.5
2023-03-13T12:26:44.480Z,83.5
2023-03-13T12:31:51.105Z,85
2023-03-13T12:36:57.060Z,81.5
2023-03-13T12:42:03.449Z,80.5
2023-03-13T12:47:10.031Z,79
2023-03-13T12:52:16.582Z,80.5
2023-03-13T12:57:23.173Z,83.5
2023-03-13T13:02:29.735Z,85
2023-03-13T13:07:36.318Z,83
2023-03-13T13:12:42.860Z,82
2023-03-13T15:20:27.059Z,79.5
2023-03-13T15:25:32.927Z,80.5
2023-03-13T15:30:39.493Z,80.5
2023-03-13T15:35:45.348Z,81
2023-03-13T15:40:51.889Z,80.5
2023-03-13T15:45:58.463Z,80
2023-03-13T15:51:05.043Z,82
2023-03-13T15:56:11.599Z,81
2023-03-13T16:01:18.197Z,80.5
2023-03-13T16:06:24.755Z,81
2023-03-13T16:11:31.317Z,81.5
2023-03-13T16:16:37.934Z,81
2023-03-13T16:21:43.758Z,80.5
2023-03-13T16:26:49.599Z,81.5
2023-03-13T16:31:56.165Z,82
2023-03-13T16:37:02.737Z,81.5
2023-03-13T16:42:09.304Z,81.5
2023-03-13T16:47:15.886Z,82
2023-03-13T16:52:22.439Z,82.5
2023-03-13T16:57:29.185Z,82.5
2023-03-13T17:02:35.745Z,84
2023-03-13T17:07:42.368Z,84
2023-03-13T17:12:48.925Z,85
2023-03-13T17:17:54.822Z,84.5
2023-03-13T17:23:00.623Z,84.5
2023-03-13T17:28:07.200Z,85.5
2023-03-13T17:33:13.731Z,86
2023-03-13T17:38:20.314Z,86.5
2023-03-13T17:43:26.886Z,85
2023-03-13T17:48:33.271Z,85.5
2023-03-13T17:53:40.099Z,86
2023-03-13T17:58:46.553Z,86.5
2023-03-13T18:03:53.135Z,86
2023-03-13T18:08:59.680Z,86
2023-03-13T18:14:06.281Z,87
2023-03-13T18:19:12.874Z,86.5
2023-03-13T18:24:19.440Z,86
2023-03-13T18:29:25.297Z,85.5
2023-03-13T18:34:31.834Z,85.5
2023-03-13T18:39:38.404Z,85.5
2023-03-13T18:44:44.914Z,86
2023-03-13T18:49:51.531Z,86
2023-03-13T18:54:58.132Z,86
2023-03-13T19:00:04.515Z,86
2023-03-13T19:05:10.539Z,85
2023-03-13T19:10:16.421Z,86
2023-03-13T19:15:22.962Z,86
2023-03-13T19:20:29.574Z,87
2023-03-13T19:25:36.142Z,87
2023-03-13T19:30:42.610Z,86.5
2023-03-13T19:35:49.264Z,86.5
2023-03-13T19:40:55.806Z,87.5
2023-03-13T19:46:02.457Z,88
2023-03-13T19:51:08.980Z,88.5
2023-03-13T19:56:15.514Z,89.5
2023-03-13T20:01:22.137Z,88.5
2023-03-13T20:06:28.714Z,89.5
2023-03-13T20:11:35.220Z,89
2023-03-13T20:16:41.060Z,90
2023-03-13T20:21:47.607Z,89
2023-03-13T20:26:54.023Z,89.5
2023-03-13T20:32:00.723Z,89
2023-03-13T20:37:07.325Z,89.5
2023-03-13T20:42:13.859Z,90
2023-03-13T20:47:20.309Z,89.5
2023-03-13T20:52:26.198Z,89.5
2023-03-13T20:57:32.033Z,89
2023-03-13T21:02:38.695Z,88
2023-03-13T21:07:45.197Z,87.5
2023-03-13T21:12:51.041Z,88.5
2023-03-13T21:17:57.608Z,88
2023-03-13T21:23:03.593Z,88.5
2023-03-13T21:28:10.183Z,87.5
2023-03-13T21:33:16.732Z,87
2023-03-13T21:38:23.290Z,88
2023-03-13T21:43:29.904Z,88.5
2023-03-13T21:48:36.612Z,88
2023-03-13T21:53:42.904Z,87
2023-03-13T21:58:49.593Z,87
2023-03-13T22:03:55.991Z,87
2023-03-13T22:09:02.612Z,88
2023-03-13T22:14:09.312Z,88
2023-03-13T22:19:15.866Z,88.5
2023-03-13T22:24:22.426Z,88.5
2023-03-13T22:29:28.262Z,89
2023-03-13T22:34:34.785Z,89.5
2023-03-13T22:39:41.410Z,90.5
2023-03-13T22:44:47.908Z,90
2023-03-13T22:49:54.377Z,90.5
2023-03-13T22:55:01.136Z,88
2023-03-13T23:00:06.742Z,88.5
2023-03-13T23:05:12.104Z,89.5
2023-03-13T23:10:18.518Z,89
2023-03-13T23:15:24.844Z,89
2023-03-13T23:51:08.942Z,88
2023-03-13T23:56:15.262Z,89.5
